This is the latest recevied weather packets stored in our database for station/object OM2RC-6. If no packets are shown the sender has not sent any weather packets the latest 1 day(s).
| Time | Temp. | Humidity | Pressure | Rain* | Wind** | Luminosity | Snow |
|---|---|---|---|---|---|---|---|
| 1778099178 | 17.22° C | 99% | 1007.6 hPa | - | - | - | - |
| 1778097668 | 17.78° C | 96% | 1007.6 hPa | - | - | - | - |
| 1778095554 | 18.33° C | 92% | 1007.5 hPa | - | - | - | - |
| 1778094951 | 18.33° C | 94% | 1007.3 hPa | - | - | - | - |
| 1778094044 | 18.33° C | 92% | 1007.5 hPa | - | - | - | - |
| 1778093140 | 18.89° C | 89% | 1007.2 hPa | - | - | - | - |
| 1778092839 | 18.89° C | 89% | 1007 hPa | - | - | - | - |
| 1778091328 | 18.89° C | 85% | 1006.9 hPa | - | - | - | - |
| 1778091026 | 18.89° C | 84% | 1006.9 hPa | - | - | - | - |
| 1778090723 | 18.89° C | 83% | 1006.9 hPa | - | - | - | - |
| 1778090421 | 19.44° C | 82% | 1006.8 hPa | - | - | - | - |
| 1778090120 | 19.44° C | 81% | 1006.8 hPa | - | - | - | - |
| 1778089819 | 19.44° C | 81% | 1006.6 hPa | - | - | - | - |
| 1778088613 | 20° C | 77% | 1006.3 hPa | - | - | - | - |
| 1778087709 | 20.56° C | 74% | 1006.2 hPa | - | - | - | - |
| 1778082283 | 22.78° C | 66% | 1007.1 hPa | - | - | - | - |
| 1778081981 | 22.22° C | 66% | 1007.2 hPa | - | - | - | - |
| 1778081379 | 22.78° C | 67% | 1007.1 hPa | - | - | - | - |
| 1778080171 | 22.78° C | 64% | 1007.5 hPa | - | - | - | - |
| 1778079867 | 22.78° C | 63% | 1007.5 hPa | - | - | - | - |
| 1778079565 | 22.78° C | 63% | 1007.7 hPa | - | - | - | - |
| 1778076252 | 22.78° C | 60% | 1007.9 hPa | - | - | - | - |
| 1778075037 | 24.44° C | 55% | 1008 hPa | - | - | - | - |
| 1778074426 | 25° C | 54% | 1008.1 hPa | - | - | - | - |
| 1778073197 | 23.89° C | 56% | 1008.1 hPa | - | - | - | - |
* Rain since midnight (hover to see other rain measurements)
** Current wind speed in m/s (hover to see current wind gust speed)